Strona główna
METAR-TAF:

METAR-TAF

Lotnisko :

Port lotniczy Kuwejt

Kuwejt, Kuwejt

Szerokość geograficzna: 29-13N, Długość geograficzna: 047-59E, wysokość: 55 m

Aktualna obserwacja pogody

Raport powstał 26 minut temu, godzina 11:00 UTC
Wiatr 6 kt od północ
Temperatura 19°C
Wilgotność 60%
Ciśnienie 1022 hPa
Widzialność: 6000 m

METAR: OKBK 191100Z 35006KT 6000 NSC 19/11 Q1022 NOSIG

czas: 14:26 (11:26 UTC)

Prognoza

Raport powstał 6 godziny i 41 minut temu, godzina 04:45 UTC
Prognoza ważna od 19 godzina 06 UTC do 20 godzina 12 UTC
Wiatr 10 kt od północno-północny zachód
Widzialność: 7000 m
bezchmurnie
Przejściowo
od 19 godzina 06 UTC do 19 godzina 09 UTC
Wiatr 3 kt z kierunków zmiennych
Widzialność: 4000 m

TAF: OKBK 190445Z 1906/2012 34010KT 7000 SKC TEMPO 1906/1909 VRB03KT 4000 BR/HZ

Obserwacja i prognoza pogody dla ponad 4000 lotnisk (raport METAR i TAF).

Dostępne stacje oznaczono żółtymi i czerwonymi punktami na mapie.

Najedź kursorem aby zobaczyć nazwę stacji.

Kliknij aby zobaczyć obserwacje i prognozy pogody.

Aby zmienić mapę: kliknij na zielony przycisk z czarnym krzyżykiem, aby powiększyć; na zielony przycisk z myślnikiem, aby pomniejszyć; na zielone strzałki, aby przejść do map sąsiednich.


METAR-TAF: